Time;durP1;ratioP1;P1;durP2;ratioP2;P2;SDS_P1;SDS_P2;PMS_P1;PMS_P2;Temp;Humidity;BMP_temperature;BMP_pressure;BME280_temperature;BME280_humidity;BME280_pressure;Samples;Min_cycle;Max_cycle;Signal;HPM_P1;HPM_P2
2021/12/25 00:00:38;;;;;;;34.95;24.32;;;;;;;7.67;50.90;100477.52;1767070;81;21522;-53
2021/12/25 00:03:05;;;;;;;38.02;24.75;;;;;;;7.67;50.86;100467.16;1764472;81;21018;-53
2021/12/25 00:05:32;;;;;;;35.43;24.60;;;;;;;7.67;50.84;100465.00;1755415;81;21010;-53
2021/12/25 00:07:58;;;;;;;37.33;25.40;;;;;;;7.67;50.85;100464.57;1766830;81;21538;-53
2021/12/25 00:10:30;;;;;;;34.18;25.72;;;;;;;7.69;50.81;100458.93;1766803;81;21019;-53
2021/12/25 00:12:55;;;;;;;41.90;27.10;;;;;;;7.69;50.87;100455.48;1761677;81;21002;-53
2021/12/25 00:15:22;;;;;;;37.17;25.15;;;;;;;7.71;50.82;100456.31;1765059;81;21046;-54
2021/12/25 00:17:48;;;;;;;39.18;24.95;;;;;;;7.72;50.82;100447.68;1766303;81;21064;-53
2021/12/25 00:20:15;;;;;;;38.05;24.35;;;;;;;7.71;50.84;100455.88;1766848;81;20951;-53
2021/12/25 00:22:42;;;;;;;36.75;24.95;;;;;;;7.71;50.91;100451.13;1766919;81;21042;-53
2021/12/25 00:25:09;;;;;;;37.50;24.72;;;;;;;7.63;51.14;100453.84;1764306;81;21043;-53
2021/12/25 00:30:23;;;;;;;40.05;26.10;;;;;;;7.72;51.09;100456.31;1698516;83;21192;-53
2021/12/25 00:35:28;;;;;;;36.35;24.18;;;;;;;7.75;51.11;100456.25;1695192;84;21047;-53
2021/12/25 00:37:55;;;;;;;33.88;24.02;;;;;;;7.76;51.12;100449.34;1688620;84;21007;-53
2021/12/25 00:40:22;;;;;;;34.53;23.90;;;;;;;7.75;51.04;100448.48;1687415;84;21496;-53
2021/12/25 00:42:49;;;;;;;35.65;25.15;;;;;;;7.73;51.03;100439.88;1687398;84;21074;-53
2021/12/25 00:45:16;;;;;;;38.30;24.80;;;;;;;7.72;51.12;100451.13;1689842;84;21035;-53
2021/12/25 00:47:45;;;;;;;34.45;24.67;;;;;;;7.73;51.24;100445.05;1688988;84;21058;-53
2021/12/25 00:50:11;;;;;;;33.67;25.50;;;;;;;7.73;51.17;100439.88;1688515;84;21058;-53
2021/12/25 00:52:37;;;;;;;37.38;24.57;;;;;;;7.75;51.17;100437.29;1687409;84;21709;-53
2021/12/25 00:55:07;;;;;;;35.03;24.65;;;;;;;7.75;51.11;100434.70;1687681;84;21587;-53
2021/12/25 00:57:35;;;;;;;34.00;23.90;;;;;;;7.75;50.98;100442.00;1684214;84;21013;-53
2021/12/25 01:00:09;;;;;;;29.55;22.82;;;;;;;7.74;50.91;100445.48;1691750;84;20988;-53
2021/12/25 01:02:38;;;;;;;34.05;24.23;;;;;;;7.73;50.87;100438.58;1687616;84;21591;-53
2021/12/25 01:05:06;;;;;;;33.65;24.18;;;;;;;7.72;50.85;100442.06;1690547;84;21507;-53
2021/12/25 01:07:34;;;;;;;35.25;25.08;;;;;;;7.73;50.91;100456.70;1720926;81;21082;-53
2021/12/25 01:10:03;;;;;;;42.83;27.77;;;;;;;7.75;51.11;100460.59;1743155;81;21018;-54
2021/12/25 01:12:36;;;;;;;42.60;25.02;;;;;;;7.75;51.27;100464.02;1742260;82;21011;-53
2021/12/25 01:15:00;;;;;;;34.03;25.02;;;;;;;7.75;51.36;100465.31;1741799;81;21062;-53
2021/12/25 01:18:06;;;;;;;36.13;25.17;;;;;;;7.74;51.42;100464.91;1735763;81;21074;-53
2021/12/25 01:31:08;;;;;;;36.00;25.97;;;;;;;7.72;51.65;100448.97;1679410;85;21082;-53
2021/12/25 01:33:52;;;;;;;36.60;24.43;;;;;;;7.70;51.58;100450.30;1689813;85;21610;-53
2021/12/25 01:38:58;;;;;;;39.40;24.05;;;;;;;7.72;51.66;100446.38;1689429;85;21010;-53
2021/12/25 01:50:00;;;;;;;33.53;24.15;;;;;;;7.74;51.89;100439.02;1637087;88;21038;-53
2021/12/25 01:52:29;;;;;;;36.00;23.32;;;;;;;7.75;51.77;100438.12;1637130;88;21049;-53
2021/12/25 01:55:00;;;;;;;35.20;24.50;;;;;;;7.73;51.71;100420.92;1584609;89;21141;-52
2021/12/25 01:57:28;;;;;;;32.08;22.65;;;;;;;7.73;51.68;100419.63;1618638;89;21000;-53
2021/12/25 01:59:58;;;;;;;32.53;23.80;;;;;;;7.71;51.68;100407.11;1648772;85;21138;-53
2021/12/25 02:02:24;;;;;;;28.27;21.10;;;;;;;7.70;51.66;100418.36;1674508;85;21484;-53
2021/12/25 02:04:52;;;;;;;30.45;23.10;;;;;;;7.71;51.50;100431.27;1675232;85;21020;-53
2021/12/25 02:07:19;;;;;;;27.07;21.25;;;;;;;7.70;51.31;100424.40;1672003;85;21048;-53
2021/12/25 02:09:47;;;;;;;26.35;20.90;;;;;;;7.69;51.20;100420.52;1675797;85;21100;-52
2021/12/25 02:12:15;;;;;;;27.00;20.65;;;;;;;7.68;51.18;100420.98;1675267;85;21056;-53
2021/12/25 02:14:44;;;;;;;26.23;21.12;;;;;;;7.67;51.12;100417.95;1660141;85;21025;-54
2021/12/25 02:19:49;;;;;;;26.27;20.57;;;;;;;7.65;51.25;100435.25;1690181;84;21061;-52
2021/12/25 02:22:12;;;;;;;26.17;19.85;;;;;;;7.64;51.33;100443.92;1690079;84;21513;-52
2021/12/25 02:24:39;;;;;;;27.20;20.97;;;;;;;7.65;51.37;100449.50;1689775;84;21586;-52
2021/12/25 02:27:06;;;;;;;24.43;19.82;;;;;;;7.67;51.35;100453.35;1690097;84;21643;-52
2021/12/25 02:29:33;;;;;;;25.25;20.25;;;;;;;7.69;51.28;100449.87;1690210;85;21522;-53
2021/12/25 02:32:01;;;;;;;27.48;20.45;;;;;;;7.69;51.20;100445.98;1655918;85;21625;-53
2021/12/25 02:34:29;;;;;;;23.67;19.70;;;;;;;7.69;51.19;100434.76;1655275;87;21038;-53
2021/12/25 02:36:55;;;;;;;25.27;20.50;;;;;;;7.66;51.22;100446.05;1655522;87;21010;-53
2021/12/25 02:39:22;;;;;;;25.15;19.67;;;;;;;7.66;51.47;100445.19;1655478;87;21057;-53
2021/12/25 02:41:50;;;;;;;24.15;19.02;;;;;;;7.68;51.63;100453.35;1655457;87;21085;-53
2021/12/25 02:44:17;;;;;;;24.75;19.10;;;;;;;7.69;51.80;100456.34;1655361;87;21018;-53
2021/12/25 02:46:47;;;;;;;24.05;18.90;;;;;;;7.71;51.88;100458.47;1655635;87;21547;-53
2021/12/25 02:49:13;;;;;;;23.57;19.07;;;;;;;7.73;51.96;100463.19;1655721;87;21030;-53
2021/12/25 02:51:46;;;;;;;21.35;18.42;;;;;;;7.75;52.02;100460.13;1655565;86;20959;-53
2021/12/25 02:54:13;;;;;;;23.50;17.92;;;;;;;7.74;52.09;100453.26;1665742;86;21055;-53
2021/12/25 02:56:40;;;;;;;22.22;17.37;;;;;;;7.77;52.23;100453.19;1672950;85;21069;-53
2021/12/25 02:59:15;;;;;;;23.67;18.55;;;;;;;7.79;52.28;100452.73;1685292;85;21050;-53
2021/12/25 03:01:42;;;;;;;21.62;18.05;;;;;;;7.84;52.44;100443.17;1673223;85;21065;-53
2021/12/25 03:04:08;;;;;;;20.85;18.25;;;;;;;7.88;52.42;100444.83;1673023;85;21038;-53
2021/12/25 03:06:38;;;;;;;22.27;17.95;;;;;;;7.91;52.40;100421.45;1674752;85;21494;-53
2021/12/25 03:09:05;;;;;;;23.27;18.17;;;;;;;7.93;52.47;100418.86;1675615;85;21612;-53
2021/12/25 03:11:34;;;;;;;24.95;18.30;;;;;;;7.96;52.53;100426.13;1674089;85;21010;-54
2021/12/25 03:16:33;;;;;;;22.17;17.23;;;;;;;8.00;52.81;100434.27;1602305;89;21063;-53
2021/12/25 03:19:01;;;;;;;19.75;17.17;;;;;;;8.05;52.83;100457.52;1602162;89;21095;-53
2021/12/25 03:21:28;;;;;;;23.12;18.37;;;;;;;8.09;52.75;100462.64;1602283;89;21022;-53
2021/12/25 03:23:54;;;;;;;21.20;17.90;;;;;;;8.11;52.69;100463.46;1602063;89;21118;-53
2021/12/25 03:26:22;;;;;;;25.30;18.60;;;;;;;8.12;52.74;100462.56;1602395;89;21074;-53
2021/12/25 03:28:51;;;;;;;24.23;18.52;;;;;;;8.15;52.83;100466.42;1602023;89;21107;-53
2021/12/25 03:31:19;;;;;;;24.12;18.90;;;;;;;8.17;52.85;100471.14;1602006;89;21121;-54
2021/12/25 03:33:52;;;;;;;22.13;18.50;;;;;;;8.21;52.79;100468.91;1602214;88;21574;-53
2021/12/25 03:36:18;;;;;;;;;;;;;;;8.26;52.69;100472.76;1550416;92;21042;-51
2021/12/25 03:38:46;;;;;;;25.48;18.90;;;;;;;8.27;52.64;100465.38;1552549;92;20150;-53
2021/12/25 03:41:14;;;;;;;23.32;18.02;;;;;;;8.27;52.51;100465.81;1550812;92;21140;-53
2021/12/25 03:43:40;;;;;;;23.77;18.17;;;;;;;8.24;52.50;100474.48;1551291;92;21042;-53
2021/12/25 03:46:09;;;;;;;23.07;17.55;;;;;;;8.24;52.41;100476.61;1550688;92;21723;-53
2021/12/25 03:49:03;;;;;;;20.97;17.67;;;;;;;8.22;52.45;100479.67;1552670;92;21130;-53
2021/12/25 03:59:31;;;;;;;22.85;18.02;;;;;;;8.21;52.42;100483.16;1644789;87;21068;-53
2021/12/25 04:02:05;;;;;;;23.52;18.07;;;;;;;8.21;52.26;100496.12;1638688;87;21048;-53
2021/12/25 04:07:05;;;;;;;25.62;18.87;;;;;;;8.18;52.22;100501.34;1638280;87;21100;-53
2021/12/25 04:09:31;;;;;;;20.72;17.55;;;;;;;8.15;52.32;100503.13;1634012;87;21056;-53
2021/12/25 04:12:02;;;;;;;21.35;17.05;;;;;;;8.14;52.36;100498.38;1640329;87;21516;-53
2021/12/25 04:14:31;;;;;;;21.20;17.65;;;;;;;8.14;52.33;100494.50;1612149;86;21075;-54
2021/12/25 04:16:58;;;;;;;24.02;17.50;;;;;;;8.15;52.29;100509.61;1640710;87;21079;-53
2021/12/25 04:19:24;;;;;;;19.67;17.15;;;;;;;8.13;52.19;100513.53;1639510;86;21079;-53
2021/12/25 04:21:59;;;;;;;21.48;17.30;;;;;;;8.11;52.20;100520.48;1638659;87;21001;-53
2021/12/25 04:24:23;;;;;;;21.60;17.98;;;;;;;8.10;52.12;100514.86;1635755;87;21607;-53
2021/12/25 04:26:51;;;;;;;25.27;18.62;;;;;;;8.08;52.27;100526.13;1638501;87;21088;-54
2021/12/25 04:47:46;;;;;;;22.22;17.02;;;;;;;8.00;52.42;100532.72;1683334;84;21042;-53
2021/12/25 05:04:42;;;;;;;19.52;15.55;;;;;;;7.98;53.15;100546.14;1691939;84;21029;-54
2021/12/25 05:07:18;;;;;;;20.40;16.00;;;;;;;8.01;53.27;100553.02;1678734;84;21033;-53
2021/12/25 05:09:45;;;;;;;19.02;15.53;;;;;;;8.03;53.32;100544.36;1681945;84;21078;-53
2021/12/25 05:12:13;;;;;;;18.52;16.15;;;;;;;8.04;53.33;100549.94;1743784;80;20999;-53
2021/12/25 05:14:39;;;;;;;20.90;16.07;;;;;;;8.07;53.34;100549.05;1774252;80;21037;-53
2021/12/25 05:17:07;;;;;;;22.45;16.17;;;;;;;8.09;53.37;100550.74;1775399;80;21005;-53
2021/12/25 05:19:35;;;;;;;20.55;16.15;;;;;;;8.12;53.39;100553.27;1774811;80;21530;-53
2021/12/25 05:22:03;;;;;;;18.07;14.28;;;;;;;8.17;53.27;100559.25;1773678;80;21438;-53
2021/12/25 05:24:30;;;;;;;19.40;15.60;;;;;;;8.22;53.10;100557.43;1772224;80;21498;-53
2021/12/25 05:26:58;;;;;;;20.17;17.05;;;;;;;8.25;52.91;100559.16;1760807;80;21040;-53
2021/12/25 05:29:26;;;;;;;18.57;15.72;;;;;;;8.27;52.69;100564.31;1775091;80;21049;-53
2021/12/25 05:31:53;;;;;;;22.75;17.02;;;;;;;8.27;52.59;100569.50;1768194;80;21550;-53
2021/12/25 05:34:22;;;;;;;18.67;15.05;;;;;;;8.27;52.56;100565.17;1707988;83;21073;-53
2021/12/25 05:36:51;;;;;;;19.07;16.23;;;;;;;8.25;52.56;100565.64;1704290;83;21042;-53
2021/12/25 05:39:26;;;;;;;20.50;16.65;;;;;;;8.27;52.45;100578.57;1702262;83;21151;-53
2021/12/25 05:41:53;;;;;;;21.48;17.37;;;;;;;8.26;52.42;100583.35;1708497;83;21530;-53
2021/12/25 05:44:23;;;;;;;21.42;17.17;;;;;;;8.24;52.45;100588.08;1708144;83;21518;-54
2021/12/25 05:46:52;;;;;;;22.05;17.00;;;;;;;8.18;52.52;100593.34;1705245;83;21050;-53
2021/12/25 05:49:20;;;;;;;21.27;17.42;;;;;;;8.16;52.69;100606.77;1657210;85;21050;-53
2021/12/25 05:52:06;;;;;;;21.10;16.93;;;;;;;8.13;52.81;100612.02;1590207;89;21038;-53
2021/12/25 05:54:50;;;;;;;23.02;17.20;;;;;;;8.12;52.97;100619.78;1528210;94;21125;-53
2021/12/25 05:57:18;;;;;;;20.45;16.60;;;;;;;8.11;53.02;100626.73;1525634;94;21596;-54
2021/12/25 05:59:59;;;;;;;20.68;16.95;;;;;;;8.13;52.98;100627.99;1484918;97;21191;-53
2021/12/25 06:02:44;;;;;;;20.10;16.57;;;;;;;8.13;52.98;100642.25;1484402;97;21634;-54
2021/12/25 06:05:14;;;;;;;22.42;16.52;;;;;;;8.11;52.90;100634.50;1481656;97;21155;-54
2021/12/25 06:07:41;;;;;;;23.65;17.67;;;;;;;8.11;52.93;100638.39;1484411;97;21085;-53
2021/12/25 06:10:10;;;;;;;22.60;16.82;;;;;;;8.10;53.08;100639.68;1476314;97;21610;-53
2021/12/25 06:12:38;;;;;;;25.32;18.27;;;;;;;8.11;53.07;100641.41;1541253;92;21085;-54
2021/12/25 06:15:07;;;;;;;30.12;19.82;;;;;;;8.14;52.97;100651.29;1554334;92;21028;-53
2021/12/25 06:17:49;;;;;;;25.45;16.57;;;;;;;8.11;52.95;100648.75;1554376;92;21560;-53
2021/12/25 06:20:18;;;;;;;25.55;17.60;;;;;;;8.09;53.08;100650.94;1551841;92;21052;-53
2021/12/25 06:22:52;;;;;;;24.07;16.67;;;;;;;8.09;53.13;100656.99;1551565;92;21583;-53
2021/12/25 06:25:23;;;;;;;21.75;16.02;;;;;;;8.09;53.14;100656.99;1551676;92;21028;-54
2021/12/25 06:27:54;;;;;;;29.35;18.77;;;;;;;8.10;53.18;100669.05;1535190;93;21583;-54
2021/12/25 06:30:29;;;;;;;27.45;17.10;;;;;;;8.12;53.31;100667.73;1582589;89;21045;-53
2021/12/25 06:33:00;;;;;;;25.97;16.33;;;;;;;8.15;53.20;100672.45;1586642;89;21106;-54
2021/12/25 06:35:32;;;;;;;36.20;19.85;;;;;;;8.21;53.12;100682.74;1603507;87;21526;-53
2021/12/25 06:38:18;;;;;;;21.00;15.93;;;;;;;8.23;53.06;100693.95;1593289;89;21029;-53
2021/12/25 06:41:05;;;;;;;18.12;13.20;;;;;;;8.26;53.00;100700.87;1561130;91;21085;-52
2021/12/25 06:43:32;;;;;;;19.12;14.55;;;;;;;8.28;52.98;100699.54;1559049;91;21110;-52
2021/12/25 06:45:59;;;;;;;19.05;15.28;;;;;;;8.24;52.89;100708.60;1587386;90;21125;-53
2021/12/25 06:48:27;;;;;;;17.55;14.78;;;;;;;8.19;53.00;100710.42;1586471;90;21110;-52
2021/12/25 06:51:01;;;;;;;17.23;14.40;;;;;;;8.17;53.11;100701.80;1595480;90;21085;-52
2021/12/25 06:53:38;;;;;;;17.70;14.53;;;;;;;8.17;53.28;100713.89;1582442;91;21080;-52
2021/12/25 06:56:06;;;;;;;22.00;17.05;;;;;;;8.21;53.32;100709.95;1566510;91;21086;-52
2021/12/25 06:58:37;;;;;;;23.45;18.17;;;;;;;8.26;53.27;100714.25;1563235;91;21547;-52
2021/12/25 07:01:04;;;;;;;20.48;16.97;;;;;;;8.30;53.20;100719.82;1566810;91;21540;-52
2021/12/25 07:03:32;;;;;;;28.83;21.23;;;;;;;8.32;53.21;100715.47;1566571;91;21170;-52
2021/12/25 07:06:17;;;;;;;56.92;39.48;;;;;;;8.33;53.16;100719.77;1586648;90;21096;-52
2021/12/25 07:08:50;;;;;;;60.55;42.60;;;;;;;8.36;53.14;100718.44;1586276;90;21187;-52
2021/12/25 07:11:34;;;;;;;62.90;44.10;;;;;;;8.36;53.10;100719.73;1588461;90;21097;-52
2021/12/25 07:14:17;;;;;;;53.90;39.45;;;;;;;8.38;53.02;100725.76;1586122;90;21134;-52
2021/12/25 07:16:58;;;;;;;90.92;62.88;;;;;;;8.37;53.09;100725.32;1587636;90;21129;-52
2021/12/25 07:19:39;;;;;;;46.73;36.27;;;;;;;8.36;53.04;100728.38;1539163;93;21095;-52
2021/12/25 07:22:20;;;;;;;41.35;33.02;;;;;;;8.37;53.12;100724.89;1514997;95;21125;-53
2021/12/25 07:24:54;;;;;;;30.68;27.37;;;;;;;8.38;53.18;100732.23;1517472;93;21097;-52
2021/12/25 07:27:39;;;;;;;24.67;21.77;;;;;;;8.42;53.20;100737.80;1529612;92;21046;-52
2021/12/25 07:30:07;;;;;;;24.00;21.40;;;;;;;8.46;53.05;100739.48;1579631;89;21096;-52
2021/12/25 07:32:34;;;;;;;22.02;19.50;;;;;;;8.48;53.02;100741.61;1554937;89;21513;-52
2021/12/25 07:35:00;;;;;;;21.02;16.05;;;;;;;8.51;53.01;100741.12;1658506;84;21017;-52
2021/12/25 07:37:27;;;;;;;27.15;15.63;;;;;;;8.53;53.08;100743.72;1655191;86;21021;-51
2021/12/25 07:39:53;;;;;;;25.15;15.60;;;;;;;8.56;53.27;100742.36;1660971;86;21515;-52
2021/12/25 07:42:19;;;;;;;27.00;15.25;;;;;;;8.60;53.51;100742.30;1661271;85;21584;-51
2021/12/25 07:45:07;;;;;;;24.98;14.83;;;;;;;8.68;53.50;100745.64;1641406;86;21022;-51
2021/12/25 07:47:35;;;;;;;26.52;15.48;;;;;;;8.75;53.49;100751.61;1666873;85;21029;-52
2021/12/25 07:50:04;;;;;;;23.07;14.07;;;;;;;8.80;53.48;100745.89;1647885;87;21580;-52
2021/12/25 07:52:30;;;;;;;19.67;14.53;;;;;;;8.85;53.51;100750.59;1663014;85;21041;-51
2021/12/25 07:54:57;;;;;;;20.57;14.33;;;;;;;8.89;53.39;100745.34;1681665;81;21569;-52
2021/12/25 07:57:25;;;;;;;25.00;14.18;;;;;;;8.92;53.38;100748.34;1765662;81;21030;-52
2021/12/25 07:59:51;;;;;;;17.50;14.35;;;;;;;8.95;53.50;100747.84;1764253;81;20979;-51
2021/12/25 08:02:18;;;;;;;18.42;13.95;;;;;;;9.03;53.31;100764.58;1760880;81;21034;-52
2021/12/25 08:04:45;;;;;;;19.65;14.25;;;;;;;9.08;53.12;100760.62;1764852;81;21046;-53
2021/12/25 08:07:11;;;;;;;17.35;12.15;;;;;;;9.13;52.96;100769.22;1758484;80;21066;-51
2021/12/25 08:09:38;;;;;;;14.15;12.60;;;;;;;9.17;52.79;100765.69;1764632;81;20975;-52
2021/12/25 08:12:07;;;;;;;13.48;11.85;;;;;;;9.20;52.74;100761.30;1756970;81;21494;-52
2021/12/25 08:14:34;;;;;;;13.70;11.25;;;;;;;9.23;52.65;100765.16;1766608;81;21045;-52
2021/12/25 08:17:03;;;;;;;17.85;13.05;;;;;;;9.27;52.64;100768.12;1754401;81;21018;-52
2021/12/25 08:19:32;;;;;;;13.70;11.68;;;;;;;9.36;52.43;100764.05;1706180;83;21110;-52
2021/12/25 08:22:10;;;;;;;13.53;12.13;;;;;;;9.43;52.31;100760.48;1613247;88;21034;-52
2021/12/25 08:24:53;;;;;;;14.00;11.73;;;;;;;9.46;52.17;100757.81;1570643;90;21229;-52
2021/12/25 08:27:24;;;;;;;15.33;12.20;;;;;;;9.51;52.16;100758.61;1543609;92;21098;-51
2021/12/25 08:30:13;;;;;;;13.90;11.75;;;;;;;9.55;52.15;100761.56;1533190;92;21051;-52
2021/12/25 08:32:59;;;;;;;12.85;10.30;;;;;;;9.61;52.16;100762.75;1552080;92;21587;-52
2021/12/25 08:35:40;;;;;;;15.00;10.73;;;;;;;9.67;52.06;100767.84;1550827;92;21514;-52
2021/12/25 08:38:06;;;;;;;13.05;11.55;;;;;;;9.73;52.02;100765.56;1551368;92;21052;-51
2021/12/25 08:40:32;;;;;;;13.20;11.60;;;;;;;9.80;51.87;100761.55;1542920;92;21091;-51
2021/12/25 08:43:02;;;;;;;12.75;10.85;;;;;;;9.88;51.80;100763.13;1543204;92;21017;-51
2021/12/25 08:45:44;;;;;;;11.88;10.50;;;;;;;9.95;51.65;100765.61;1551185;92;21106;-51
2021/12/25 08:48:20;;;;;;;11.90;10.70;;;;;;;10.01;51.52;100760.72;1549290;92;21119;-51
2021/12/25 08:50:52;;;;;;;13.35;10.25;;;;;;;10.07;51.46;100754.10;1540522;92;21099;-51
2021/12/25 08:53:20;;;;;;;13.68;11.22;;;;;;;10.16;51.30;100759.17;1497542;95;21078;-51
2021/12/25 08:55:48;;;;;;;14.60;11.10;;;;;;;10.24;51.05;100752.06;1494157;95;21135;-51
2021/12/25 08:58:15;;;;;;;12.98;10.82;;;;;;;10.31;50.93;100759.70;1531545;91;21042;-52
2021/12/25 09:00:44;;;;;;;14.38;11.03;;;;;;;10.40;50.74;100770.36;1551134;92;21060;-51
2021/12/25 09:03:10;;;;;;;11.78;9.83;;;;;;;10.47;50.57;100770.62;1552308;91;21129;-51
2021/12/25 09:05:38;;;;;;;13.83;10.23;;;;;;;10.51;50.44;100762.73;1563752;91;21053;-51
2021/12/25 09:08:05;;;;;;;12.60;10.48;;;;;;;10.56;50.38;100758.73;1542008;92;21077;-52
2021/12/25 09:10:34;;;;;;;12.80;10.63;;;;;;;10.61;50.32;100755.61;1584779;90;21089;-51
2021/12/25 09:13:02;;;;;;;12.80;10.30;;;;;;;10.65;50.31;100745.55;1593996;90;21585;-51
2021/12/25 09:15:29;;;;;;;11.20;10.00;;;;;;;10.75;50.21;100747.48;1594086;90;21602;-51
2021/12/25 09:17:56;;;;;;;12.15;10.50;;;;;;;10.82;50.13;100742.09;1594535;90;21073;-51
2021/12/25 09:20:24;;;;;;;13.85;11.30;;;;;;;10.89;50.15;100744.98;1566715;91;21105;-51
2021/12/25 09:22:50;;;;;;;11.88;9.75;;;;;;;10.96;50.05;100743.96;1585660;90;21115;-51
2021/12/25 09:25:17;;;;;;;12.90;10.75;;;;;;;11.00;49.97;100748.20;1594186;90;21033;-52
2021/12/25 09:27:44;;;;;;;12.03;9.58;;;;;;;11.07;49.87;100748.45;1594149;90;21109;-51
2021/12/25 09:30:11;;;;;;;11.73;9.15;;;;;;;11.13;49.81;100750.91;1594434;90;21063;-51
2021/12/25 09:32:38;;;;;;;11.45;9.60;;;;;;;11.22;49.73;100748.53;1605049;89;21121;-51
2021/12/25 09:35:05;;;;;;;10.78;9.00;;;;;;;11.29;49.55;100747.03;1633688;87;21086;-51
2021/12/25 09:37:31;;;;;;;11.48;9.50;;;;;;;11.35;49.40;100748.17;1616235;87;21037;-51
2021/12/25 09:39:59;;;;;;;19.98;12.18;;;;;;;11.42;49.21;100744.98;1620653;87;21035;-52
2021/12/25 09:42:25;;;;;;;23.15;11.85;;;;;;;11.48;49.29;100749.59;1620857;83;21048;-52
2021/12/25 09:44:53;;;;;;;26.12;12.10;;;;;;;11.53;49.71;100757.30;1712815;83;21085;-53
2021/12/25 09:47:20;;;;;;;26.00;12.50;;;;;;;11.55;50.03;100753.34;1739152;80;21073;-52
2021/12/25 09:49:46;;;;;;;17.65;11.00;;;;;;;11.55;50.32;100750.73;1770645;80;21133;-51
2021/12/25 09:52:13;;;;;;;17.92;10.35;;;;;;;11.56;50.62;100744.64;1787455;80;20997;-51
2021/12/25 09:54:40;;;;;;;17.30;9.70;;;;;;;11.59;50.78;100735.42;1781851;80;21074;-51
2021/12/25 09:57:07;;;;;;;11.93;9.98;;;;;;;11.59;50.34;100734.12;1787495;80;21037;-51
2021/12/25 09:59:34;;;;;;;10.90;9.38;;;;;;;11.65;49.85;100733.95;1777430;79;21083;-52
2021/12/25 10:02:01;;;;;;;9.83;8.83;;;;;;;11.68;49.56;100733.92;1780553;80;20978;-51
2021/12/25 10:04:41;;;;;;;11.83;9.15;;;;;;;11.74;49.32;100733.77;1778637;80;21017;-52
2021/12/25 10:07:30;;;;;;;9.78;8.78;;;;;;;11.77;49.14;100734.97;1776982;80;20975;-51
2021/12/25 10:10:10;;;;;;;9.30;7.92;;;;;;;11.81;48.98;100737.93;1774425;80;21073;-51
2021/12/25 10:12:43;;;;;;;10.32;9.00;;;;;;;11.84;48.93;100739.13;1771447;80;20994;-52
2021/12/25 10:15:13;;;;;;;11.08;9.28;;;;;;;11.85;48.86;100740.38;1777938;80;20958;-52
2021/12/25 10:17:54;;;;;;;10.55;8.15;;;;;;;11.90;48.85;100744.17;1781118;80;21017;-52
2021/12/25 10:20:24;;;;;;;10.65;8.88;;;;;;;11.93;48.71;100734.98;1776141;80;21016;-52
2021/12/25 10:23:13;;;;;;;10.82;8.70;;;;;;;11.98;48.54;100737.00;1779140;80;21045;-52
2021/12/25 10:25:51;;;;;;;10.35;8.95;;;;;;;12.02;48.48;100731.66;1774381;80;21062;-53
2021/12/25 10:28:22;;;;;;;13.43;8.93;;;;;;;12.08;48.46;100739.75;1775744;80;21034;-52
2021/12/25 10:30:54;;;;;;;11.47;9.50;;;;;;;12.12;48.47;100733.55;1785048;80;21051;-53
2021/12/25 10:33:32;;;;;;;10.75;9.50;;;;;;;12.16;48.46;100744.30;1758165;80;20996;-52
2021/12/25 10:36:08;;;;;;;12.55;9.20;;;;;;;12.20;48.30;100749.84;1771882;81;21010;-53
2021/12/25 10:38:37;;;;;;;31.07;14.25;;;;;;;12.24;48.23;100750.19;1763138;81;21004;-53
2021/12/25 10:41:19;;;;;;;29.23;13.08;;;;;;;12.28;48.45;100740.06;1765929;81;21016;-53
2021/12/25 10:43:44;;;;;;;27.45;12.47;;;;;;;12.34;48.92;100741.19;1697384;83;21529;-53
2021/12/25 10:46:10;;;;;;;30.05;12.23;;;;;;;12.38;48.90;100744.12;1700367;83;21502;-53
2021/12/25 10:48:37;;;;;;;27.48;13.55;;;;;;;12.38;48.82;100749.33;1701422;83;21500;-50
2021/12/25 10:51:04;;;;;;;29.65;14.98;;;;;;;12.21;49.06;100739.83;1695622;83;21417;-51
2021/12/25 10:53:37;;;;;;;27.98;15.93;;;;;;;12.19;49.13;100730.75;1702283;84;21486;-52
2021/12/25 10:56:12;;;;;;;33.95;19.37;;;;;;;12.26;48.87;100732.73;1641143;87;21076;-54
2021/12/25 10:58:42;;;;;;;34.98;16.87;;;;;;;12.32;48.78;100730.39;1637985;87;21027;-50
2021/12/25 11:01:12;;;;;;;40.38;16.50;;;;;;;12.34;49.10;100727.28;1638212;87;21075;-50
2021/12/25 11:03:42;;;;;;;54.03;16.75;;;;;;;12.35;49.88;100727.23;1638041;87;21062;-50
2021/12/25 11:06:17;;;;;;;37.70;15.30;;;;;;;12.40;50.35;100716.22;1632471;86;21012;-53
2021/12/25 11:08:46;;;;;;;35.40;13.83;;;;;;;12.44;50.56;100719.14;1593907;89;21056;-50
2021/12/25 11:11:15;;;;;;;35.92;15.45;;;;;;;12.42;50.64;100718.77;1605991;89;21607;-52
2021/12/25 11:13:50;;;;;;;63.28;17.17;;;;;;;12.42;50.82;100720.95;1592939;89;21539;-53
2021/12/25 11:16:30;;;;;;;55.23;19.55;;;;;;;12.44;51.10;100717.84;1543551;92;21138;-53
2021/12/25 11:19:27;;;;;;;56.37;18.40;;;;;;;12.52;51.04;100724.98;1546847;91;21105;-53
2021/12/25 11:21:50;;;;;;;40.73;14.80;;;;;;;12.56;50.89;100725.73;1570976;89;21103;-52
2021/12/25 11:24:31;;;;;;;41.05;16.25;;;;;;;12.60;50.73;100725.61;1579350;91;21053;-52
2021/12/25 11:27:02;;;;;;;66.28;19.10;;;;;;;12.65;50.42;100734.13;1572340;91;21039;-51
2021/12/25 11:29:31;;;;;;;35.98;13.58;;;;;;;12.69;50.21;100743.61;1575186;89;21106;-51
2021/12/25 11:31:58;;;;;;;25.05;11.60;;;;;;;12.70;50.11;100741.39;1585860;89;21070;-50
2021/12/25 11:34:25;;;;;;;26.37;10.90;;;;;;;12.70;50.08;100746.61;1578541;89;21157;-51
2021/12/25 11:36:53;;;;;;;20.25;10.00;;;;;;;12.69;50.21;100748.83;1577446;89;21198;-50
2021/12/25 11:39:22;;;;;;;13.03;8.40;;;;;;;12.68;50.26;100747.11;1579869;89;21101;-51
2021/12/25 11:41:49;;;;;;;19.62;9.65;;;;;;;12.67;50.08;100743.25;1583971;89;21526;-50
2021/12/25 11:44:42;;;;;;;24.18;10.98;;;;;;;12.68;49.97;100746.25;1584606;89;21065;-51
2021/12/25 11:47:07;;;;;;;34.15;10.88;;;;;;;12.70;49.80;100742.70;1575036;89;21072;-51
2021/12/25 11:49:53;;;;;;;19.90;10.10;;;;;;;12.75;49.57;100735.59;1582048;89;21107;-51
2021/12/25 11:52:20;;;;;;;16.60;9.83;;;;;;;12.79;49.22;100733.73;1602542;89;21056;-51
2021/12/25 12:00:42;;;;;;;9.25;8.03;;;;;;;12.85;48.56;100746.15;1617934;87;21029;-51
2021/12/25 12:03:35;;;;;;;8.23;6.65;;;;;;;12.91;48.27;100754.23;1595527;88;21081;-51
2021/12/25 12:06:01;;;;;;;9.10;7.30;;;;;;;12.95;48.06;100752.80;1592869;88;21024;-51
2021/12/25 12:08:28;;;;;;;23.90;12.03;;;;;;;13.03;47.91;100749.92;1596088;88;21080;-50
2021/12/25 12:11:01;;;;;;;30.10;11.97;;;;;;;13.08;47.95;100749.82;1592718;90;21072;-51
2021/12/25 12:13:47;;;;;;;25.68;11.50;;;;;;;13.15;48.04;100753.48;1654867;85;21209;-51
2021/12/25 12:16:21;;;;;;;11.65;8.05;;;;;;;13.18;48.00;100755.16;1622187;88;21098;-51
2021/12/25 12:18:50;;;;;;;9.53;7.92;;;;;;;13.20;47.61;100754.65;1549178;91;21071;-51
2021/12/25 12:21:23;;;;;;;9.40;6.95;;;;;;;13.22;47.30;100753.70;1539794;92;21130;-51
2021/12/25 12:24:21;;;;;;;10.55;7.17;;;;;;;13.21;47.18;100748.53;1531838;92;21074;-50
2021/12/25 12:26:48;;;;;;;40.50;13.55;;;;;;;13.20;47.08;100752.03;1543375;92;21155;-51
2021/12/25 12:29:40;;;;;;;39.45;14.45;;;;;;;13.19;47.46;100752.95;1530824;92;21127;-52
2021/12/25 12:32:23;;;;;;;35.55;14.03;;;;;;;13.18;48.28;100762.98;1525185;92;21573;-51
2021/12/25 12:34:51;;;;;;;39.38;13.25;;;;;;;13.16;48.66;100766.97;1523888;93;21082;-51
2021/12/25 12:37:24;;;;;;;26.73;10.95;;;;;;;13.14;48.91;100767.91;1514692;93;21052;-51
2021/12/25 12:40:03;;;;;;;31.12;10.63;;;;;;;13.13;49.06;100766.22;1526551;92;21055;-52
2021/12/25 12:42:49;;;;;;;19.52;9.73;;;;;;;13.11;49.62;100760.19;1541387;93;21100;-51
2021/12/25 12:45:24;;;;;;;14.47;9.45;;;;;;;13.08;50.26;100748.90;1541739;93;21061;-52
2021/12/25 12:48:22;;;;;;;18.55;8.93;;;;;;;13.03;50.69;100745.56;1555260;92;21106;-52
2021/12/25 12:50:55;;;;;;;25.37;11.50;;;;;;;12.99;50.80;100745.27;1561715;92;21554;-51
2021/12/25 12:53:24;;;;;;;21.93;10.50;;;;;;;12.94;50.88;100748.45;1568737;90;21182;-51
2021/12/25 12:55:54;;;;;;;16.07;9.58;;;;;;;12.90;51.25;100751.23;1580517;90;21076;-52